sensor_id;sensor_type;location;lat;lon;timestamp;temperature;humidity
44695;DHT22;32845;59.422;17.930;2023-01-15T00:01:58;4.60;99.90
44695;DHT22;32845;59.422;17.930;2023-01-15T00:06:30;4.70;99.90
44695;DHT22;32845;59.422;17.930;2023-01-15T00:11:03;4.70;99.90
44695;DHT22;32845;59.422;17.930;2023-01-15T00:15:33;4.70;99.90
44695;DHT22;32845;59.422;17.930;2023-01-15T00:20:05;4.80;99.90
44695;DHT22;32845;59.422;17.930;2023-01-15T00:24:36;4.90;99.90
44695;DHT22;32845;59.422;17.930;2023-01-15T00:29:26;4.90;99.90
44695;DHT22;32845;59.422;17.930;2023-01-15T00:33:56;4.90;99.90
44695;DHT22;32845;59.422;17.930;2023-01-15T00:38:27;4.90;99.90
44695;DHT22;32845;59.422;17.930;2023-01-15T00:42:58;4.90;99.90
44695;DHT22;32845;59.422;17.930;2023-01-15T00:47:28;4.90;99.90
44695;DHT22;32845;59.422;17.930;2023-01-15T00:51:59;4.80;99.90
44695;DHT22;32845;59.422;17.930;2023-01-15T00:56:30;4.80;99.90
44695;DHT22;32845;59.422;17.930;2023-01-15T01:01:01;4.80;99.90
44695;DHT22;32845;59.422;17.930;2023-01-15T01:05:31;4.70;99.90
44695;DHT22;32845;59.422;17.930;2023-01-15T01:10:02;4.70;99.90
44695;DHT22;32845;59.422;17.930;2023-01-15T01:14:33;4.60;99.90
44695;DHT22;32845;59.422;17.930;2023-01-15T01:19:09;4.60;99.90
44695;DHT22;32845;59.422;17.930;2023-01-15T01:23:40;4.50;99.90
44695;DHT22;32845;59.422;17.930;2023-01-15T01:28:11;4.50;99.90
44695;DHT22;32845;59.422;17.930;2023-01-15T01:32:45;4.40;99.90
44695;DHT22;32845;59.422;17.930;2023-01-15T01:37:16;4.40;99.90
44695;DHT22;32845;59.422;17.930;2023-01-15T01:41:47;4.40;99.90
44695;DHT22;32845;59.422;17.930;2023-01-15T01:46:18;4.30;99.90
44695;DHT22;32845;59.422;17.930;2023-01-15T01:50:49;4.30;99.90
44695;DHT22;32845;59.422;17.930;2023-01-15T01:55:22;4.30;99.90
44695;DHT22;32845;59.422;17.930;2023-01-15T01:59:54;4.30;99.90
44695;DHT22;32845;59.422;17.930;2023-01-15T02:04:28;4.20;99.90
44695;DHT22;32845;59.422;17.930;2023-01-15T02:08:59;4.20;99.90
44695;DHT22;32845;59.422;17.930;2023-01-15T02:18:23;4.10;99.90
44695;DHT22;32845;59.422;17.930;2023-01-15T02:23:22;4.20;99.90
44695;DHT22;32845;59.422;17.930;2023-01-15T02:32:49;4.10;99.90
44695;DHT22;32845;59.422;17.930;2023-01-15T02:37:25;4.00;99.90
44695;DHT22;32845;59.422;17.930;2023-01-15T02:41:59;4.00;99.90
44695;DHT22;32845;59.422;17.930;2023-01-15T02:46:33;4.00;99.90
44695;DHT22;32845;59.422;17.930;2023-01-15T02:51:13;3.90;99.90
44695;DHT22;32845;59.422;17.930;2023-01-15T02:55:47;3.90;99.90
44695;DHT22;32845;59.422;17.930;2023-01-15T03:00:21;3.90;99.90
44695;DHT22;32845;59.422;17.930;2023-01-15T03:09:51;3.80;99.90
44695;DHT22;32845;59.422;17.930;2023-01-15T03:14:37;3.70;99.90
44695;DHT22;32845;59.422;17.930;2023-01-15T03:19:30;3.70;99.90
44695;DHT22;32845;59.422;17.930;2023-01-15T03:24:06;3.70;99.90
44695;DHT22;32845;59.422;17.930;2023-01-15T03:28:38;3.60;99.90
44695;DHT22;32845;59.422;17.930;2023-01-15T03:33:10;3.60;99.90
44695;DHT22;32845;59.422;17.930;2023-01-15T03:37:41;3.70;99.90
44695;DHT22;32845;59.422;17.930;2023-01-15T03:57:07;3.60;99.90
44695;DHT22;32845;59.422;17.930;2023-01-15T04:01:41;3.60;99.90
44695;DHT22;32845;59.422;17.930;2023-01-15T04:06:14;3.50;99.90
44695;DHT22;32845;59.422;17.930;2023-01-15T04:10:55;3.50;99.90
44695;DHT22;32845;59.422;17.930;2023-01-15T04:15:26;3.50;99.90
44695;DHT22;32845;59.422;17.930;2023-01-15T04:19:57;3.50;99.90
44695;DHT22;32845;59.422;17.930;2023-01-15T04:24:27;3.50;99.90
44695;DHT22;32845;59.422;17.930;2023-01-15T04:28:58;3.60;99.90
44695;DHT22;32845;59.422;17.930;2023-01-15T04:33:29;3.60;99.90
44695;DHT22;32845;59.422;17.930;2023-01-15T04:37:59;3.70;99.90
44695;DHT22;32845;59.422;17.930;2023-01-15T04:42:30;3.70;99.90
44695;DHT22;32845;59.422;17.930;2023-01-15T04:47:19;3.70;99.90
44695;DHT22;32845;59.422;17.930;2023-01-15T04:51:50;3.70;99.90
44695;DHT22;32845;59.422;17.930;2023-01-15T04:56:21;3.80;99.90
44695;DHT22;32845;59.422;17.930;2023-01-15T05:00:52;3.90;99.90
44695;DHT22;32845;59.422;17.930;2023-01-15T05:05:22;4.00;99.90
44695;DHT22;32845;59.422;17.930;2023-01-15T05:09:53;4.10;99.90
44695;DHT22;32845;59.422;17.930;2023-01-15T05:14:24;4.20;99.90
44695;DHT22;32845;59.422;17.930;2023-01-15T05:18:58;4.30;99.90
44695;DHT22;32845;59.422;17.930;2023-01-15T05:23:29;4.30;99.90
44695;DHT22;32845;59.422;17.930;2023-01-15T05:27:59;4.40;99.90
44695;DHT22;32845;59.422;17.930;2023-01-15T05:32:30;4.50;99.90
44695;DHT22;32845;59.422;17.930;2023-01-15T05:37:01;4.60;99.90
44695;DHT22;32845;59.422;17.930;2023-01-15T05:41:32;4.70;99.90
44695;DHT22;32845;59.422;17.930;2023-01-15T05:46:18;4.80;99.90
44695;DHT22;32845;59.422;17.930;2023-01-15T05:50:49;4.80;99.90
44695;DHT22;32845;59.422;17.930;2023-01-15T05:55:19;4.90;99.90
44695;DHT22;32845;59.422;17.930;2023-01-15T05:59:50;5.00;99.90
44695;DHT22;32845;59.422;17.930;2023-01-15T06:04:22;5.00;99.90
44695;DHT22;32845;59.422;17.930;2023-01-15T06:08:54;5.00;99.90
44695;DHT22;32845;59.422;17.930;2023-01-15T06:13:25;4.90;99.90
44695;DHT22;32845;59.422;17.930;2023-01-15T06:17:56;5.00;99.90
44695;DHT22;32845;59.422;17.930;2023-01-15T06:22:26;4.90;99.90
44695;DHT22;32845;59.422;17.930;2023-01-15T06:26:57;4.90;99.90
44695;DHT22;32845;59.422;17.930;2023-01-15T06:31:28;4.90;99.90
44695;DHT22;32845;59.422;17.930;2023-01-15T06:36:05;4.90;99.90
44695;DHT22;32845;59.422;17.930;2023-01-15T06:40:36;4.90;99.90
44695;DHT22;32845;59.422;17.930;2023-01-15T06:45:09;5.00;99.90
44695;DHT22;32845;59.422;17.930;2023-01-15T06:49:59;4.90;99.90
44695;DHT22;32845;59.422;17.930;2023-01-15T06:54:30;4.90;99.90
44695;DHT22;32845;59.422;17.930;2023-01-15T06:59:00;4.90;99.90
44695;DHT22;32845;59.422;17.930;2023-01-15T07:03:31;4.80;99.90
44695;DHT22;32845;59.422;17.930;2023-01-15T07:08:02;4.90;99.90
44695;DHT22;32845;59.422;17.930;2023-01-15T07:12:34;4.90;99.90
44695;DHT22;32845;59.422;17.930;2023-01-15T07:17:04;4.80;99.90
44695;DHT22;32845;59.422;17.930;2023-01-15T07:21:35;4.70;99.90
44695;DHT22;32845;59.422;17.930;2023-01-15T07:26:06;4.60;99.90
44695;DHT22;32845;59.422;17.930;2023-01-15T07:30:37;4.50;99.90
44695;DHT22;32845;59.422;17.930;2023-01-15T07:35:08;4.40;99.90
44695;DHT22;32845;59.422;17.930;2023-01-15T07:39:39;4.40;99.90
44695;DHT22;32845;59.422;17.930;2023-01-15T07:44:10;4.30;99.90
44695;DHT22;32845;59.422;17.930;2023-01-15T07:48:59;4.30;99.90
44695;DHT22;32845;59.422;17.930;2023-01-15T07:53:49;4.20;99.90
44695;DHT22;32845;59.422;17.930;2023-01-15T07:58:19;4.20;99.90
44695;DHT22;32845;59.422;17.930;2023-01-15T08:02:50;4.20;99.90
44695;DHT22;32845;59.422;17.930;2023-01-15T08:07:21;4.20;99.90
44695;DHT22;32845;59.422;17.930;2023-01-15T08:11:52;4.20;99.90
44695;DHT22;32845;59.422;17.930;2023-01-15T08:16:41;4.20;99.90
44695;DHT22;32845;59.422;17.930;2023-01-15T08:21:17;4.20;99.90
44695;DHT22;32845;59.422;17.930;2023-01-15T08:25:48;4.20;99.90
44695;DHT22;32845;59.422;17.930;2023-01-15T08:30:22;4.20;99.90
44695;DHT22;32845;59.422;17.930;2023-01-15T08:34:53;4.10;99.90
44695;DHT22;32845;59.422;17.930;2023-01-15T08:39:27;4.10;99.90
44695;DHT22;32845;59.422;17.930;2023-01-15T08:43:58;4.10;99.90
44695;DHT22;32845;59.422;17.930;2023-01-15T08:48:31;4.00;99.90
44695;DHT22;32845;59.422;17.930;2023-01-15T08:53:02;4.00;99.90
44695;DHT22;32845;59.422;17.930;2023-01-15T08:57:32;4.00;99.90
44695;DHT22;32845;59.422;17.930;2023-01-15T09:02:03;4.00;99.90
44695;DHT22;32845;59.422;17.930;2023-01-15T09:06:34;4.00;99.90
44695;DHT22;32845;59.422;17.930;2023-01-15T09:11:06;4.00;99.90
44695;DHT22;32845;59.422;17.930;2023-01-15T09:15:39;4.00;99.90
44695;DHT22;32845;59.422;17.930;2023-01-15T09:20:11;4.00;99.90
44695;DHT22;32845;59.422;17.930;2023-01-15T09:24:42;3.90;99.90
44695;DHT22;32845;59.422;17.930;2023-01-15T09:29:13;4.00;99.90
44695;DHT22;32845;59.422;17.930;2023-01-15T09:33:43;4.00;99.90
44695;DHT22;32845;59.422;17.930;2023-01-15T09:38:16;3.90;99.90
44695;DHT22;32845;59.422;17.930;2023-01-15T09:43:02;3.90;99.90
44695;DHT22;32845;59.422;17.930;2023-01-15T09:47:55;3.90;99.90
44695;DHT22;32845;59.422;17.930;2023-01-15T09:57:11;4.00;99.90
44695;DHT22;32845;59.422;17.930;2023-01-15T10:01:43;4.10;99.90
44695;DHT22;32845;59.422;17.930;2023-01-15T10:06:27;4.20;99.90
44695;DHT22;32845;59.422;17.930;2023-01-15T10:11:03;4.40;99.90
44695;DHT22;32845;59.422;17.930;2023-01-15T10:15:45;4.70;99.90
44695;DHT22;32845;59.422;17.930;2023-01-15T10:25:12;4.80;99.90
44695;DHT22;32845;59.422;17.930;2023-01-15T10:30:00;5.20;99.90
44695;DHT22;32845;59.422;17.930;2023-01-15T10:48:56;5.60;99.90
44695;DHT22;32845;59.422;17.930;2023-01-15T10:53:43;5.40;99.90
44695;DHT22;32845;59.422;17.930;2023-01-15T11:03:12;5.20;99.90
44695;DHT22;32845;59.422;17.930;2023-01-15T11:07:49;5.10;99.90
44695;DHT22;32845;59.422;17.930;2023-01-15T11:12:26;5.00;99.90
44695;DHT22;32845;59.422;17.930;2023-01-15T11:17:17;5.00;99.90
44695;DHT22;32845;59.422;17.930;2023-01-15T11:22:13;5.00;99.90
44695;DHT22;32845;59.422;17.930;2023-01-15T11:26:47;5.00;99.90
44695;DHT22;32845;59.422;17.930;2023-01-15T11:31:20;4.90;99.90
44695;DHT22;32845;59.422;17.930;2023-01-15T11:35:54;4.90;99.90
44695;DHT22;32845;59.422;17.930;2023-01-15T11:40:28;4.90;99.90
44695;DHT22;32845;59.422;17.930;2023-01-15T11:44:59;5.00;99.90
44695;DHT22;32845;59.422;17.930;2023-01-15T11:49:52;5.20;99.90
44695;DHT22;32845;59.422;17.930;2023-01-15T11:54:45;6.20;99.90
44695;DHT22;32845;59.422;17.930;2023-01-15T11:59:17;7.60;99.90
44695;DHT22;32845;59.422;17.930;2023-01-15T12:03:49;8.40;99.90
44695;DHT22;32845;59.422;17.930;2023-01-15T12:23:13;6.50;99.90
44695;DHT22;32845;59.422;17.930;2023-01-15T12:28:08;6.20;99.90
44695;DHT22;32845;59.422;17.930;2023-01-15T12:32:45;5.90;99.90
44695;DHT22;32845;59.422;17.930;2023-01-15T12:37:24;5.80;99.90
44695;DHT22;32845;59.422;17.930;2023-01-15T12:42:06;5.70;99.90
44695;DHT22;32845;59.422;17.930;2023-01-15T12:46:57;5.60;99.90
44695;DHT22;32845;59.422;17.930;2023-01-15T12:51:48;5.50;99.90
44695;DHT22;32845;59.422;17.930;2023-01-15T12:56:46;5.40;99.90
44695;DHT22;32845;59.422;17.930;2023-01-15T13:06:16;5.30;99.90
44695;DHT22;32845;59.422;17.930;2023-01-15T13:10:49;5.20;99.90
44695;DHT22;32845;59.422;17.930;2023-01-15T13:15:25;5.20;99.90
44695;DHT22;32845;59.422;17.930;2023-01-15T13:20:15;5.20;99.90
44695;DHT22;32845;59.422;17.930;2023-01-15T13:25:11;5.20;99.90
44695;DHT22;32845;59.422;17.930;2023-01-15T13:39:24;5.00;99.90
44695;DHT22;32845;59.422;17.930;2023-01-15T13:43:59;4.90;99.90
44695;DHT22;32845;59.422;17.930;2023-01-15T13:48:42;4.90;99.90
44695;DHT22;32845;59.422;17.930;2023-01-15T13:57:56;4.90;99.90
44695;DHT22;32845;59.422;17.930;2023-01-15T14:02:30;4.90;99.90
44695;DHT22;32845;59.422;17.930;2023-01-15T14:07:01;4.90;99.90
44695;DHT22;32845;59.422;17.930;2023-01-15T14:11:37;4.80;99.90
44695;DHT22;32845;59.422;17.930;2023-01-15T14:26:07;4.80;99.90
44695;DHT22;32845;59.422;17.930;2023-01-15T14:35:36;4.80;99.90
44695;DHT22;32845;59.422;17.930;2023-01-15T14:40:30;4.80;99.90
44695;DHT22;32845;59.422;17.930;2023-01-15T14:45:05;4.80;99.90
44695;DHT22;32845;59.422;17.930;2023-01-15T14:49:44;4.70;99.90
44695;DHT22;32845;59.422;17.930;2023-01-15T14:54:19;4.60;99.90
44695;DHT22;32845;59.422;17.930;2023-01-15T15:03:36;4.50;99.90
44695;DHT22;32845;59.422;17.930;2023-01-15T15:08:12;4.40;99.90
44695;DHT22;32845;59.422;17.930;2023-01-15T15:17:41;4.30;99.90
44695;DHT22;32845;59.422;17.930;2023-01-15T15:22:15;4.20;99.90
44695;DHT22;32845;59.422;17.930;2023-01-15T15:26:48;4.20;99.90
44695;DHT22;32845;59.422;17.930;2023-01-15T15:31:19;4.10;99.90
44695;DHT22;32845;59.422;17.930;2023-01-15T15:35:53;4.10;99.90
44695;DHT22;32845;59.422;17.930;2023-01-15T15:40:30;4.00;99.90
44695;DHT22;32845;59.422;17.930;2023-01-15T15:45:19;4.00;99.90
44695;DHT22;32845;59.422;17.930;2023-01-15T15:50:42;4.00;99.90
44695;DHT22;32845;59.422;17.930;2023-01-15T15:55:19;3.90;99.90
44695;DHT22;32845;59.422;17.930;2023-01-15T15:59:51;3.90;99.90
44695;DHT22;32845;59.422;17.930;2023-01-15T16:04:22;3.90;99.90
44695;DHT22;32845;59.422;17.930;2023-01-15T16:08:58;3.90;99.90
44695;DHT22;32845;59.422;17.930;2023-01-15T16:13:47;3.80;99.90
44695;DHT22;32845;59.422;17.930;2023-01-15T16:18:26;3.80;99.90
44695;DHT22;32845;59.422;17.930;2023-01-15T16:23:03;3.80;99.90
44695;DHT22;32845;59.422;17.930;2023-01-15T16:27:35;3.70;99.90
44695;DHT22;32845;59.422;17.930;2023-01-15T16:32:10;3.70;99.90
44695;DHT22;32845;59.422;17.930;2023-01-15T16:36:41;3.70;99.90
44695;DHT22;32845;59.422;17.930;2023-01-15T16:41:27;3.60;99.90
44695;DHT22;32845;59.422;17.930;2023-01-15T16:46:06;3.60;99.90
44695;DHT22;32845;59.422;17.930;2023-01-15T16:50:45;3.60;99.90
44695;DHT22;32845;59.422;17.930;2023-01-15T17:00:06;3.60;99.90
44695;DHT22;32845;59.422;17.930;2023-01-15T17:04:51;3.60;99.90
44695;DHT22;32845;59.422;17.930;2023-01-15T17:09:22;3.60;99.90
44695;DHT22;32845;59.422;17.930;2023-01-15T17:14:25;3.70;99.90
44695;DHT22;32845;59.422;17.930;2023-01-15T17:18:56;3.70;99.90
44695;DHT22;32845;59.422;17.930;2023-01-15T17:23:28;3.70;99.90
44695;DHT22;32845;59.422;17.930;2023-01-15T17:28:01;3.80;99.90
44695;DHT22;32845;59.422;17.930;2023-01-15T17:32:33;3.80;99.90
44695;DHT22;32845;59.422;17.930;2023-01-15T17:37:09;3.80;99.90
44695;DHT22;32845;59.422;17.930;2023-01-15T17:41:40;3.90;99.90
44695;DHT22;32845;59.422;17.930;2023-01-15T17:46:11;3.90;99.90
44695;DHT22;32845;59.422;17.930;2023-01-15T17:50:42;3.90;99.90
44695;DHT22;32845;59.422;17.930;2023-01-15T17:55:18;3.90;99.90
44695;DHT22;32845;59.422;17.930;2023-01-15T18:00:09;3.90;99.90
44695;DHT22;32845;59.422;17.930;2023-01-15T18:04:58;3.90;99.90
44695;DHT22;32845;59.422;17.930;2023-01-15T18:09:47;3.90;99.90
44695;DHT22;32845;59.422;17.930;2023-01-15T18:14:19;3.90;99.90
44695;DHT22;32845;59.422;17.930;2023-01-15T18:18:51;3.80;99.90
44695;DHT22;32845;59.422;17.930;2023-01-15T18:23:23;3.80;99.90
44695;DHT22;32845;59.422;17.930;2023-01-15T18:27:55;3.90;99.90
44695;DHT22;32845;59.422;17.930;2023-01-15T18:32:33;3.90;99.90
44695;DHT22;32845;59.422;17.930;2023-01-15T18:37:04;3.90;99.90
44695;DHT22;32845;59.422;17.930;2023-01-15T18:41:36;3.90;99.90
44695;DHT22;32845;59.422;17.930;2023-01-15T18:46:06;3.90;99.90
44695;DHT22;32845;59.422;17.930;2023-01-15T18:50:56;3.90;99.90
44695;DHT22;32845;59.422;17.930;2023-01-15T18:55:28;3.90;99.90
44695;DHT22;32845;59.422;17.930;2023-01-15T18:59:59;3.90;99.90
44695;DHT22;32845;59.422;17.930;2023-01-15T19:04:35;3.90;99.90
44695;DHT22;32845;59.422;17.930;2023-01-15T19:09:07;4.00;99.90
44695;DHT22;32845;59.422;17.930;2023-01-15T19:13:38;4.00;99.90
44695;DHT22;32845;59.422;17.930;2023-01-15T19:18:10;4.00;99.90
44695;DHT22;32845;59.422;17.930;2023-01-15T19:22:59;4.10;99.90
44695;DHT22;32845;59.422;17.930;2023-01-15T19:27:31;4.10;99.90
44695;DHT22;32845;59.422;17.930;2023-01-15T19:32:02;4.10;99.90
44695;DHT22;32845;59.422;17.930;2023-01-15T19:36:34;4.10;99.90
44695;DHT22;32845;59.422;17.930;2023-01-15T19:41:11;4.20;99.90
44695;DHT22;32845;59.422;17.930;2023-01-15T19:46:01;4.30;99.90
44695;DHT22;32845;59.422;17.930;2023-01-15T19:50:50;4.30;99.90
44695;DHT22;32845;59.422;17.930;2023-01-15T19:55:26;4.40;99.90
44695;DHT22;32845;59.422;17.930;2023-01-15T19:59:57;4.40;99.90
44695;DHT22;32845;59.422;17.930;2023-01-15T20:04:28;4.50;99.90
44695;DHT22;32845;59.422;17.930;2023-01-15T20:09:00;4.50;99.90
44695;DHT22;32845;59.422;17.930;2023-01-15T20:13:31;4.40;99.90
44695;DHT22;32845;59.422;17.930;2023-01-15T20:18:21;4.50;99.90
44695;DHT22;32845;59.422;17.930;2023-01-15T20:22:52;4.40;99.90
44695;DHT22;32845;59.422;17.930;2023-01-15T20:27:29;4.40;99.90
44695;DHT22;32845;59.422;17.930;2023-01-15T20:32:01;4.20;99.90
44695;DHT22;32845;59.422;17.930;2023-01-15T20:36:32;4.20;99.90
44695;DHT22;32845;59.422;17.930;2023-01-15T20:41:06;4.10;99.90
44695;DHT22;32845;59.422;17.930;2023-01-15T20:46:12;4.10;99.90
44695;DHT22;32845;59.422;17.930;2023-01-15T20:50:46;4.10;99.90
44695;DHT22;32845;59.422;17.930;2023-01-15T20:55:37;4.00;99.90
44695;DHT22;32845;59.422;17.930;2023-01-15T21:00:14;4.00;99.90
44695;DHT22;32845;59.422;17.930;2023-01-15T21:04:45;4.00;99.90
44695;DHT22;32845;59.422;17.930;2023-01-15T21:09:16;4.00;99.90
44695;DHT22;32845;59.422;17.930;2023-01-15T21:13:48;4.00;99.90
44695;DHT22;32845;59.422;17.930;2023-01-15T21:18:26;4.00;99.90
44695;DHT22;32845;59.422;17.930;2023-01-15T21:22:57;3.90;99.90
44695;DHT22;32845;59.422;17.930;2023-01-15T21:27:28;4.00;99.90
44695;DHT22;32845;59.422;17.930;2023-01-15T21:31:59;4.00;99.90
44695;DHT22;32845;59.422;17.930;2023-01-15T21:36:29;4.00;99.90
44695;DHT22;32845;59.422;17.930;2023-01-15T21:41:12;4.00;99.90
44695;DHT22;32845;59.422;17.930;2023-01-15T21:45:43;4.10;99.90
44695;DHT22;32845;59.422;17.930;2023-01-15T21:50:17;4.10;99.90
44695;DHT22;32845;59.422;17.930;2023-01-15T21:54:49;4.10;99.90
44695;DHT22;32845;59.422;17.930;2023-01-15T21:59:22;4.20;99.90
44695;DHT22;32845;59.422;17.930;2023-01-15T22:03:53;4.20;99.90
44695;DHT22;32845;59.422;17.930;2023-01-15T22:08:23;4.20;99.90
44695;DHT22;32845;59.422;17.930;2023-01-15T22:12:54;4.20;99.90
44695;DHT22;32845;59.422;17.930;2023-01-15T22:17:26;4.20;99.90
44695;DHT22;32845;59.422;17.930;2023-01-15T22:22:03;4.20;99.90
44695;DHT22;32845;59.422;17.930;2023-01-15T22:26:34;4.20;99.90
44695;DHT22;32845;59.422;17.930;2023-01-15T22:31:07;4.20;99.90
44695;DHT22;32845;59.422;17.930;2023-01-15T22:35:37;4.20;99.90
44695;DHT22;32845;59.422;17.930;2023-01-15T22:40:09;4.20;99.90
44695;DHT22;32845;59.422;17.930;2023-01-15T22:44:40;4.20;99.90
44695;DHT22;32845;59.422;17.930;2023-01-15T22:49:12;4.20;99.90
44695;DHT22;32845;59.422;17.930;2023-01-15T22:53:43;4.20;99.90
44695;DHT22;32845;59.422;17.930;2023-01-15T22:58:14;4.20;99.90
44695;DHT22;32845;59.422;17.930;2023-01-15T23:02:46;4.20;99.90
44695;DHT22;32845;59.422;17.930;2023-01-15T23:07:35;4.20;99.90
44695;DHT22;32845;59.422;17.930;2023-01-15T23:12:07;4.20;99.90
44695;DHT22;32845;59.422;17.930;2023-01-15T23:16:38;4.20;99.90
44695;DHT22;32845;59.422;17.930;2023-01-15T23:21:16;4.20;99.90
44695;DHT22;32845;59.422;17.930;2023-01-15T23:25:47;4.30;99.90
44695;DHT22;32845;59.422;17.930;2023-01-15T23:30:29;4.20;99.90
44695;DHT22;32845;59.422;17.930;2023-01-15T23:35:00;4.30;99.90
44695;DHT22;32845;59.422;17.930;2023-01-15T23:39:30;4.30;99.90
44695;DHT22;32845;59.422;17.930;2023-01-15T23:44:01;4.30;99.90
44695;DHT22;32845;59.422;17.930;2023-01-15T23:48:50;4.30;99.90
44695;DHT22;32845;59.422;17.930;2023-01-15T23:53:21;4.30;99.90
44695;DHT22;32845;59.422;17.930;2023-01-15T23:57:52;4.30;99.90
